Time;durP1;ratioP1;P1;durP2;ratioP2;P2;SDS_P1;SDS_P2;PMS_P1;PMS_P2;Temp;Humidity;BMP_temperature;BMP_pressure;BME280_temperature;BME280_humidity;BME280_pressure;Samples;Min_cycle;Max_cycle;Signal;HPM_P1;HPM_P2
2022/07/29 00:01:46;;;;;;;5.57;2.88;;;24.20;59.00;;;;;;5085635;28;20692;-80
2022/07/29 00:04:12;;;;;;;6.20;3.22;;;24.30;59.00;;;;;;5088331;28;20039;-79
2022/07/29 00:06:38;;;;;;;4.25;2.53;;;24.30;59.00;;;;;;5106083;28;20471;-81
2022/07/29 00:09:04;;;;;;;7.00;3.05;;;24.30;59.10;;;;;;5106781;28;20080;-81
2022/07/29 00:11:30;;;;;;;4.07;3.08;;;24.40;59.10;;;;;;5087992;28;20055;-80
2022/07/29 00:13:55;;;;;;;5.15;3.10;;;24.40;59.20;;;;;;5087744;28;20032;-81
2022/07/29 00:16:21;;;;;;;6.60;3.58;;;24.50;59.40;;;;;;5106659;28;20032;-82
2022/07/29 00:18:47;;;;;;;5.47;3.00;;;24.40;59.50;;;;;;5088299;28;20407;-79
2022/07/29 00:21:12;;;;;;;8.48;4.50;;;24.40;59.70;;;;;;5087628;28;20768;-80
2022/07/29 00:23:38;;;;;;;4.97;3.25;;;24.40;59.90;;;;;;5106272;28;20065;-80
2022/07/29 00:26:04;;;;;;;13.90;3.00;;;24.30;60.00;;;;;;5105317;28;20394;-81
2022/07/29 00:28:29;;;;;;;5.10;3.03;;;24.40;60.10;;;;;;5106065;28;20185;-81
2022/07/29 00:30:55;;;;;;;6.38;3.22;;;24.40;60.20;;;;;;5106088;28;20742;-80
2022/07/29 00:33:21;;;;;;;7.13;3.17;;;24.40;60.20;;;;;;5088324;28;20032;-82
2022/07/29 00:35:47;;;;;;;3.97;3.15;;;24.40;60.10;;;;;;5087944;28;20491;-81
2022/07/29 00:38:18;;;;;;;7.32;3.35;;;24.40;60.20;;;;;;5105637;28;20042;-80
2022/07/29 00:40:44;;;;;;;5.72;3.10;;;24.40;60.30;;;;;;5106334;28;20465;-80
2022/07/29 00:43:12;;;;;;;5.43;3.20;;;24.40;60.90;;;;;;5106224;28;20032;-79
2022/07/29 00:45:38;;;;;;;5.93;3.50;;;24.40;60.30;;;;;;5110102;28;20484;-80
2022/07/29 00:48:06;;;;;;;3.90;3.17;;;24.40;60.40;;;;;;5092611;28;20042;-80
2022/07/29 00:50:32;;;;;;;6.38;3.25;;;24.40;60.40;;;;;;5110419;28;20039;-79
2022/07/29 00:52:59;;;;;;;8.07;2.95;;;24.40;60.20;;;;;;5109628;28;20509;-79
2022/07/29 00:55:25;;;;;;;6.05;3.05;;;24.40;60.30;;;;;;5091688;28;20022;-80
2022/07/29 00:57:51;;;;;;;6.47;3.20;;;24.40;60.10;;;;;;5109386;28;20031;-80
2022/07/29 01:00:21;;;;;;;5.47;3.22;;;24.40;59.70;;;;;;5109675;28;20023;-80
2022/07/29 01:02:48;;;;;;;5.97;2.80;;;24.40;59.60;;;;;;5110346;28;20501;-80
2022/07/29 01:05:16;;;;;;;3.22;2.65;;;24.40;59.50;;;;;;5109478;28;20034;-80
2022/07/29 01:07:42;;;;;;;5.20;3.05;;;24.40;59.40;;;;;;5091446;28;20035;-80
2022/07/29 01:10:09;;;;;;;4.30;2.83;;;24.50;59.30;;;;;;5110006;28;20099;-81
2022/07/29 01:12:37;;;;;;;4.25;2.38;;;24.50;59.10;;;;;;5090881;28;20059;-81
2022/07/29 01:15:06;;;;;;;3.80;2.95;;;24.50;58.80;;;;;;5109642;28;20024;-80
2022/07/29 01:17:53;;;;;;;4.57;3.03;;;24.50;58.80;;;;;;5090839;28;20442;-81
2022/07/29 01:20:37;;;;;;;4.20;2.60;;;24.50;58.70;;;;;;5091219;28;20027;-81
2022/07/29 01:23:40;;;;;;;8.35;3.13;;;24.50;58.50;;;;;;5090994;28;20023;-80
2022/07/29 01:26:34;;;;;;;5.47;2.97;;;24.60;58.20;;;;;;5090396;28;20046;-80
2022/07/29 01:29:15;;;;;;;9.52;3.47;;;24.60;58.10;;;;;;5091096;28;20066;-80
2022/07/29 01:31:56;;;;;;;5.10;3.15;;;24.60;58.20;;;;;;5090967;28;20059;-80
2022/07/29 01:34:25;;;;;;;6.13;2.90;;;24.60;58.00;;;;;;5091269;28;20176;-80
2022/07/29 01:37:01;;;;;;;7.25;3.45;;;24.50;57.90;;;;;;5109415;28;20108;-80
2022/07/29 01:39:32;;;;;;;5.10;3.08;;;24.50;57.70;;;;;;5109182;28;20711;-81
2022/07/29 01:42:12;;;;;;;4.00;3.17;;;24.50;57.70;;;;;;5090192;28;20028;-81
2022/07/29 01:44:48;;;;;;;19.65;3.53;;;24.40;57.60;;;;;;5109236;28;20030;-80
2022/07/29 01:47:22;;;;;;;3.92;2.42;;;24.40;57.40;;;;;;5090875;28;20393;-80
2022/07/29 01:49:56;;;;;;;8.75;2.38;;;24.40;57.30;;;;;;5090429;28;20543;-79
2022/07/29 01:52:37;;;;;;;4.35;2.72;;;24.40;57.40;;;;;;5090437;28;20043;-79
2022/07/29 01:55:11;;;;;;;3.33;2.38;;;24.40;57.50;;;;;;5107328;28;20057;-79
2022/07/29 01:57:40;;;;;;;5.13;2.75;;;24.40;57.20;;;;;;5108588;28;20076;-80
2022/07/29 02:00:07;;;;;;;5.60;3.15;;;24.40;57.20;;;;;;5090263;28;20038;-80
2022/07/29 02:02:35;;;;;;;4.72;2.42;;;24.40;57.40;;;;;;5108862;28;20106;-81
2022/07/29 02:05:02;;;;;;;3.17;2.13;;;24.40;57.60;;;;;;5108780;28;20020;-81
2022/07/29 02:07:31;;;;;;;4.70;2.42;;;24.40;57.60;;;;;;5108259;28;20051;-81
2022/07/29 02:09:58;;;;;;;6.28;2.17;;;24.30;57.70;;;;;;5090204;28;20100;-79
2022/07/29 02:12:25;;;;;;;3.88;2.42;;;24.40;58.10;;;;;;5108016;28;20039;-80
2022/07/29 02:14:53;;;;;;;5.57;2.60;;;24.30;58.00;;;;;;5108574;28;20070;-79
2022/07/29 02:17:31;;;;;;;2.83;2.15;;;24.30;58.20;;;;;;5090160;28;20031;-80
2022/07/29 02:20:00;;;;;;;4.80;2.55;;;24.40;58.00;;;;;;5108412;28;20688;-80
2022/07/29 02:22:29;;;;;;;6.13;2.72;;;24.40;58.00;;;;;;5089870;28;20032;-80
2022/07/29 02:24:55;;;;;;;5.75;3.17;;;24.40;58.00;;;;;;5107916;28;20577;-79
2022/07/29 02:27:23;;;;;;;4.95;2.45;;;24.50;57.90;;;;;;5089770;28;20035;-80
2022/07/29 02:29:49;;;;;;;6.32;2.83;;;24.50;57.60;;;;;;5107904;28;20031;-80
2022/07/29 02:32:17;;;;;;;7.25;2.38;;;24.50;57.50;;;;;;5089764;28;20392;-80
2022/07/29 02:34:43;;;;;;;4.13;2.15;;;24.50;57.40;;;;;;5107778;28;20096;-79
2022/07/29 02:37:15;;;;;;;3.75;2.20;;;24.60;57.50;;;;;;5089839;28;20080;-79
2022/07/29 02:39:43;;;;;;;4.03;2.25;;;24.50;57.30;;;;;;5107482;28;20110;-81
2022/07/29 02:42:14;;;;;;;3.95;2.40;;;24.50;57.40;;;;;;5088999;28;20068;-80
2022/07/29 02:44:40;;;;;;;5.05;2.70;;;24.50;57.70;;;;;;5089820;28;20131;-81
2022/07/29 02:47:39;;;;;;;3.63;2.35;;;24.40;57.60;;;;;;5107246;28;20122;-79
2022/07/29 02:50:32;;;;;;;6.75;2.55;;;24.40;57.60;;;;;;5107909;28;20054;-80
2022/07/29 02:53:14;;;;;;;7.25;2.40;;;24.40;57.70;;;;;;5089208;28;20114;-80
2022/07/29 02:55:45;;;;;;;2.92;2.17;;;24.40;57.80;;;;;;5088476;28;20152;-81
2022/07/29 02:58:28;;;;;;;6.38;2.85;;;24.30;58.20;;;;;;5089141;28;20200;-80
2022/07/29 03:01:02;;;;;;;3.58;2.53;;;24.20;58.10;;;;;;5088839;28;20123;-81
2022/07/29 03:03:31;;;;;;;4.25;2.50;;;24.20;58.20;;;;;;5089236;28;20033;-80
2022/07/29 03:05:59;;;;;;;3.40;2.25;;;24.20;58.20;;;;;;5088769;28;20077;-81
2022/07/29 03:08:27;;;;;;;5.97;2.53;;;24.20;58.00;;;;;;5088825;28;20036;-81
2022/07/29 03:10:53;;;;;;;3.83;2.40;;;24.30;58.10;;;;;;5088568;28;20031;-80
2022/07/29 03:13:20;;;;;;;3.13;2.08;;;24.20;57.90;;;;;;5088879;28;20172;-80
2022/07/29 03:15:47;;;;;;;6.47;2.38;;;24.20;58.00;;;;;;5089210;28;20024;-81
2022/07/29 03:18:14;;;;;;;8.90;2.25;;;24.20;57.90;;;;;;5088264;28;20399;-80
2022/07/29 03:20:40;;;;;;;4.70;2.17;;;24.20;57.90;;;;;;5088924;28;20031;-81
2022/07/29 03:23:06;;;;;;;5.03;2.30;;;24.20;57.80;;;;;;5107338;28;20039;-80
2022/07/29 03:25:31;;;;;;;5.25;2.53;;;24.20;57.90;;;;;;5106208;28;20546;-81
2022/07/29 03:27:57;;;;;;;5.22;2.17;;;24.10;57.80;;;;;;5088294;28;20045;-82
2022/07/29 03:30:23;;;;;;;5.05;2.35;;;24.10;57.80;;;;;;5089491;28;20077;-80
2022/07/29 03:32:50;;;;;;;8.13;2.25;;;24.10;57.80;;;;;;5088345;28;20444;-80
2022/07/29 03:35:19;;;;;;;11.00;2.90;;;24.10;57.80;;;;;;5107156;28;20032;-81
2022/07/29 03:37:45;;;;;;;5.07;2.58;;;24.20;58.10;;;;;;5088256;28;20104;-80
2022/07/29 03:40:19;;;;;;;5.38;2.50;;;24.20;58.10;;;;;;5087898;28;20023;-81
2022/07/29 03:42:46;;;;;;;2.72;2.35;;;24.20;58.00;;;;;;5088572;28;20027;-81
2022/07/29 03:45:17;;;;;;;4.65;2.10;;;24.30;58.00;;;;;;5106692;28;20019;-80
2022/07/29 03:47:51;;;;;;;2.97;1.98;;;24.40;58.10;;;;;;5106886;28;20040;-82
2022/07/29 03:50:19;;;;;;;3.85;2.13;;;24.40;58.70;;;;;;5088580;28;20023;-81
2022/07/29 03:52:45;;;;;;;8.90;2.40;;;24.40;58.10;;;;;;5088194;28;20031;-80
2022/07/29 03:55:12;;;;;;;4.68;2.00;;;24.40;58.50;;;;;;5106450;28;20030;-81
2022/07/29 03:57:39;;;;;;;6.82;2.33;;;24.40;58.70;;;;;;5088163;28;20024;-79
2022/07/29 04:00:06;;;;;;;5.43;2.33;;;24.40;58.80;;;;;;5106350;28;20129;-79
2022/07/29 04:02:32;;;;;;;3.88;2.03;;;24.40;59.10;;;;;;5088309;28;20053;-81
2022/07/29 04:04:58;;;;;;;9.55;2.50;;;24.50;59.40;;;;;;5107341;28;20028;-81
2022/07/29 04:07:24;;;;;;;4.03;2.10;;;24.50;59.50;;;;;;5106880;28;20559;-81
2022/07/29 04:09:50;;;;;;;7.60;2.47;;;24.60;59.70;;;;;;5088048;28;20157;-81
2022/07/29 04:12:15;;;;;;;3.22;2.40;;;24.70;59.90;;;;;;5088432;28;20391;-82
2022/07/29 04:14:41;;;;;;;5.10;2.72;;;24.80;59.80;;;;;;5088687;28;20115;-81
2022/07/29 04:17:07;;;;;;;8.40;2.58;;;24.90;59.70;;;;;;5087956;28;20049;-80
2022/07/29 04:19:33;;;;;;;4.13;2.10;;;24.90;59.70;;;;;;5090721;28;20475;-80
2022/07/29 04:22:00;;;;;;;4.85;2.20;;;25.00;59.80;;;;;;5092328;28;20028;-81
2022/07/29 04:24:25;;;;;;;4.65;2.10;;;25.20;59.70;;;;;;5110113;28;20051;-80
2022/07/29 04:26:51;;;;;;;4.63;2.20;;;25.40;59.30;;;;;;5090882;28;20141;-81
2022/07/29 04:29:17;;;;;;;3.25;2.03;;;25.70;58.90;;;;;;5110076;28;20156;-80
2022/07/29 04:31:43;;;;;;;4.38;2.03;;;26.00;58.40;;;;;;5110633;28;20023;-81
2022/07/29 04:34:10;;;;;;;3.45;2.13;;;26.20;58.30;;;;;;5091482;28;20027;-82
2022/07/29 04:36:35;;;;;;;4.45;2.13;;;26.20;58.00;;;;;;5092569;28;20541;-82
2022/07/29 04:39:01;;;;;;;3.58;2.58;;;26.30;58.10;;;;;;5110175;28;20027;-81
2022/07/29 04:41:28;;;;;;;4.13;1.88;;;26.30;58.10;;;;;;5091095;28;20020;-81
2022/07/29 04:43:54;;;;;;;2.97;1.95;;;26.30;58.20;;;;;;5109393;28;20028;-82
2022/07/29 04:46:19;;;;;;;4.22;2.28;;;26.30;58.20;;;;;;5110304;28;20051;-82
2022/07/29 04:48:46;;;;;;;4.35;2.28;;;26.30;58.20;;;;;;5089042;28;20043;-80
2022/07/29 04:51:12;;;;;;;5.18;1.90;;;26.40;58.00;;;;;;5090085;28;20032;-82
2022/07/29 04:53:37;;;;;;;6.28;2.10;;;26.50;58.20;;;;;;5096782;27;20026;-81
2022/07/29 04:56:03;;;;;;;5.57;1.95;;;26.60;58.00;;;;;;5088699;28;20028;-81
2022/07/29 04:58:29;;;;;;;4.18;1.92;;;26.60;58.20;;;;;;5119243;27;20221;-81
2022/07/29 05:00:55;;;;;;;5.00;2.20;;;26.70;58.10;;;;;;5112103;27;20027;-82
2022/07/29 05:03:20;;;;;;;3.83;2.00;;;26.80;57.60;;;;;;5110961;27;20041;-82
2022/07/29 05:05:46;;;;;;;7.30;1.90;;;26.90;57.50;;;;;;5130166;27;20035;-81
2022/07/29 05:08:12;;;;;;;3.38;2.25;;;27.00;57.50;;;;;;5091162;28;20151;-80
2022/07/29 05:10:38;;;;;;;4.78;2.17;;;27.10;57.20;;;;;;5091011;28;20476;-80
2022/07/29 05:13:07;;;;;;;3.17;2.00;;;27.10;57.30;;;;;;5106474;28;20035;-81
2022/07/29 05:15:34;;;;;;;5.35;2.10;;;27.10;57.10;;;;;;5087472;28;20024;-81
2022/07/29 05:18:00;;;;;;;4.95;2.22;;;27.10;57.00;;;;;;5091789;28;20092;-81
2022/07/29 05:20:28;;;;;;;5.80;2.55;;;27.20;57.20;;;;;;5091496;28;20110;-80
2022/07/29 05:22:58;;;;;;;4.18;2.05;;;27.20;57.20;;;;;;5090992;28;20510;-81
2022/07/29 05:25:26;;;;;;;3.47;2.17;;;27.20;57.10;;;;;;5091346;28;20024;-80
2022/07/29 05:27:51;;;;;;;4.03;1.90;;;27.30;57.40;;;;;;5091835;28;20563;-78
2022/07/29 05:30:17;;;;;;;3.60;2.15;;;27.40;57.20;;;;;;5108331;28;20149;-79
2022/07/29 05:32:43;;;;;;;12.55;2.40;;;27.60;56.70;;;;;;5091303;28;20499;-80
2022/07/29 05:35:09;;;;;;;7.07;2.03;;;27.60;56.80;;;;;;5090393;28;20100;-80
2022/07/29 05:37:34;;;;;;;6.65;2.05;;;27.80;56.70;;;;;;5090008;28;20061;-79
2022/07/29 05:40:00;;;;;;;5.38;2.00;;;28.00;56.50;;;;;;5090305;28;20035;-78
2022/07/29 05:42:26;;;;;;;7.35;2.60;;;28.10;56.10;;;;;;5090906;28;20035;-79
2022/07/29 05:44:52;;;;;;;4.60;2.05;;;28.10;56.20;;;;;;5078321;28;20024;-79
2022/07/29 05:47:18;;;;;;;3.22;1.98;;;28.10;56.20;;;;;;5108581;28;20040;-80
2022/07/29 05:49:44;;;;;;;4.05;2.22;;;28.40;55.90;;;;;;5089588;28;20073;-80
2022/07/29 05:52:10;;;;;;;4.10;2.45;;;28.50;55.70;;;;;;5090202;28;20039;-80
2022/07/29 05:54:36;;;;;;;7.13;2.65;;;28.70;55.30;;;;;;5089948;28;20016;-80
2022/07/29 05:57:02;;;;;;;5.82;2.08;;;29.00;55.00;;;;;;5106612;28;20032;-80
2022/07/29 05:59:28;;;;;;;8.80;2.55;;;29.40;53.90;;;;;;5105384;28;20016;-80
2022/07/29 06:01:54;;;;;;;4.47;2.10;;;29.50;53.20;;;;;;5089544;28;20376;-80
2022/07/29 06:04:20;;;;;;;4.78;2.63;;;29.60;53.30;;;;;;5106538;28;20030;-80
2022/07/29 06:06:46;;;;;;;7.75;1.77;;;29.90;52.80;;;;;;5094695;28;20044;-81
2022/07/29 06:09:11;;;;;;;9.32;1.83;;;30.50;51.70;;;;;;5108369;28;20035;-79
2022/07/29 06:11:37;;;;;;;5.95;1.95;;;30.70;50.80;;;;;;5089199;28;20034;-79
2022/07/29 06:14:03;;;;;;;8.15;2.20;;;30.60;50.60;;;;;;5107491;28;20089;-80
2022/07/29 06:16:29;;;;;;;7.03;2.22;;;30.40;51.10;;;;;;5089816;28;20511;-79
2022/07/29 06:18:54;;;;;;;4.28;2.00;;;30.40;51.30;;;;;;5108586;28;20034;-79
2022/07/29 06:21:20;;;;;;;7.70;2.33;;;30.50;50.90;;;;;;5107367;28;20032;-80
2022/07/29 06:23:47;;;;;;;8.55;2.38;;;30.90;50.90;;;;;;5107991;28;20038;-80
2022/07/29 06:26:13;;;;;;;7.95;2.15;;;31.00;50.50;;;;;;5107764;28;20143;-79
2022/07/29 06:28:38;;;;;;;4.72;2.30;;;31.20;49.90;;;;;;5108314;28;20106;-81
2022/07/29 06:31:05;;;;;;;7.40;1.92;;;31.40;49.80;;;;;;5088878;28;20662;-80
2022/07/29 06:33:31;;;;;;;7.07;2.40;;;31.90;49.40;;;;;;5106950;28;20492;-79
2022/07/29 06:35:56;;;;;;;4.45;2.13;;;31.90;48.30;;;;;;5107551;28;20046;-79
2022/07/29 06:38:22;;;;;;;7.07;2.08;;;32.00;48.20;;;;;;5107123;28;20045;-80
2022/07/29 06:41:00;;;;;;;4.43;2.58;;;32.20;48.00;;;;;;5088887;28;20396;-79
2022/07/29 06:43:37;;;;;;;6.13;2.08;;;32.60;47.40;;;;;;5107826;28;20099;-81
2022/07/29 06:46:05;;;;;;;5.85;1.77;;;32.90;46.50;;;;;;5089363;28;20059;-80
2022/07/29 06:48:31;;;;;;;5.20;1.83;;;33.40;46.70;;;;;;5106103;28;20042;-79
2022/07/29 06:50:57;;;;;;;3.78;1.77;;;33.80;45.30;;;;;;5106236;28;20015;-80
2022/07/29 06:53:23;;;;;;;7.97;2.17;;;34.20;44.70;;;;;;5107386;28;20102;-81
2022/07/29 06:55:49;;;;;;;6.47;1.98;;;34.10;43.90;;;;;;5084698;28;20030;-80
2022/07/29 06:58:17;;;;;;;8.27;2.00;;;34.30;44.00;;;;;;5082924;28;20027;-81
2022/07/29 07:00:44;;;;;;;5.07;1.98;;;34.50;43.20;;;;;;5071971;28;20047;-80
2022/07/29 07:03:10;;;;;;;6.63;2.03;;;34.60;42.80;;;;;;5068665;28;20043;-80
2022/07/29 07:05:36;;;;;;;5.38;1.70;;;34.80;43.10;;;;;;5093864;28;20020;-81
2022/07/29 07:08:02;;;;;;;4.47;1.90;;;35.10;41.90;;;;;;5106939;28;20105;-80
2022/07/29 07:10:28;;;;;;;4.15;2.00;;;35.20;41.10;;;;;;5089098;28;20047;-81
2022/07/29 07:12:53;;;;;;;6.07;2.20;;;35.30;41.40;;;;;;5088576;28;20058;-81
2022/07/29 07:15:22;;;;;;;5.18;2.38;;;35.30;41.00;;;;;;5088866;28;20020;-80
2022/07/29 07:17:48;;;;;;;4.40;1.88;;;35.30;40.80;;;;;;5089021;28;20059;-81
2022/07/29 07:20:17;;;;;;;6.40;2.20;;;35.30;40.70;;;;;;5088923;28;20035;-79
2022/07/29 07:22:43;;;;;;;5.15;2.05;;;35.70;40.70;;;;;;5107100;28;20089;-80
2022/07/29 07:25:10;;;;;;;6.50;1.80;;;36.00;39.60;;;;;;5107187;28;20027;-80
2022/07/29 07:27:36;;;;;;;3.45;2.30;;;35.70;39.80;;;;;;5088149;28;20036;-80
2022/07/29 07:30:05;;;;;;;4.35;2.15;;;35.60;39.50;;;;;;5106733;28;20483;-81
2022/07/29 07:32:31;;;;;;;6.60;2.00;;;35.80;39.60;;;;;;5107120;28;20423;-81
2022/07/29 07:34:58;;;;;;;8.75;2.33;;;35.90;39.80;;;;;;5106858;28;20076;-79
2022/07/29 07:37:24;;;;;;;4.63;1.77;;;35.90;39.20;;;;;;5087293;28;20027;-80
2022/07/29 07:39:51;;;;;;;4.97;2.15;;;35.60;40.10;;;;;;5095534;28;20031;-79
2022/07/29 07:42:17;;;;;;;5.93;2.00;;;35.80;40.00;;;;;;5105360;28;20028;-81
2022/07/29 07:44:43;;;;;;;6.13;2.17;;;35.90;39.00;;;;;;5105490;28;20031;-81
2022/07/29 07:47:09;;;;;;;5.45;1.85;;;35.60;39.60;;;;;;5106404;28;20035;-79
2022/07/29 07:49:34;;;;;;;8.68;2.00;;;35.60;39.70;;;;;;5087734;28;20251;-80
2022/07/29 07:52:00;;;;;;;4.88;1.80;;;35.50;39.40;;;;;;5105985;28;20510;-81
2022/07/29 07:54:26;;;;;;;7.35;1.90;;;35.60;39.80;;;;;;5088618;28;20107;-81
2022/07/29 07:56:51;;;;;;;3.42;2.03;;;35.80;39.50;;;;;;5087234;28;20024;-80
2022/07/29 07:59:17;;;;;;;4.03;1.83;;;35.70;39.30;;;;;;5106773;28;20028;-80
2022/07/29 08:01:43;;;;;;;5.97;2.20;;;35.80;39.70;;;;;;5088415;28;20016;-80
2022/07/29 08:04:09;;;;;;;8.80;2.08;;;36.10;38.70;;;;;;5106761;28;20024;-80
2022/07/29 08:06:35;;;;;;;5.53;2.72;;;36.20;39.00;;;;;;5106305;28;20071;-81
2022/07/29 08:09:03;;;;;;;9.05;2.40;;;36.40;39.30;;;;;;5088308;28;20110;-80
2022/07/29 08:11:28;;;;;;;6.30;3.03;;;36.60;39.30;;;;;;5088261;28;20024;-80
2022/07/29 08:13:54;;;;;;;11.50;2.97;;;37.20;38.00;;;;;;5105981;28;20127;-80
2022/07/29 08:16:20;;;;;;;7.60;2.05;;;37.40;37.40;;;;;;5088046;28;20077;-81
2022/07/29 08:18:46;;;;;;;3.97;2.25;;;37.50;37.40;;;;;;5106684;28;20090;-80
2022/07/29 08:21:13;;;;;;;4.05;2.20;;;37.50;37.40;;;;;;5106038;28;20026;-79
2022/07/29 08:23:39;;;;;;;4.97;2.03;;;38.00;37.10;;;;;;5105994;28;20067;-81
2022/07/29 08:26:10;;;;;;;5.57;2.72;;;37.70;36.30;;;;;;5106377;28;20024;-79
2022/07/29 08:28:40;;;;;;;4.75;2.30;;;37.20;36.50;;;;;;5106264;28;20464;-79
2022/07/29 08:31:06;;;;;;;9.40;2.60;;;37.30;36.50;;;;;;5087674;28;20435;-80
2022/07/29 08:33:33;;;;;;;8.23;2.72;;;37.50;37.00;;;;;;5087964;28;20032;-80
2022/07/29 08:35:59;;;;;;;6.00;2.30;;;37.60;36.40;;;;;;5088088;28;20071;-81
2022/07/29 08:38:25;;;;;;;5.68;2.80;;;37.80;35.70;;;;;;5105807;28;20023;-80
2022/07/29 08:40:52;;;;;;;8.10;3.13;;;37.60;35.30;;;;;;5088750;28;20066;-80
2022/07/29 08:43:19;;;;;;;4.80;2.20;;;37.50;36.50;;;;;;5106148;28;20051;-79
2022/07/29 08:45:51;;;;;;;6.85;3.15;;;37.20;35.80;;;;;;5105867;28;20097;-80
2022/07/29 08:48:22;;;;;;;16.70;2.85;;;37.40;36.60;;;;;;5106530;28;20088;-80
2022/07/29 08:50:52;;;;;;;8.93;3.38;;;37.30;36.60;;;;;;5087539;28;20209;-79
2022/07/29 08:53:18;;;;;;;13.43;3.85;;;36.90;36.30;;;;;;5105684;28;20031;-79
2022/07/29 08:55:46;;;;;;;14.10;4.38;;;36.60;36.40;;;;;;5088240;28;20030;-79
2022/07/29 08:58:13;;;;;;;16.05;3.80;;;36.50;36.90;;;;;;5087680;28;20023;-81
2022/07/29 09:00:45;;;;;;;8.88;2.95;;;36.60;36.80;;;;;;5088013;28;20110;-79
2022/07/29 09:03:17;;;;;;;14.68;3.85;;;36.60;37.10;;;;;;5106193;28;20491;-80
2022/07/29 09:05:45;;;;;;;22.48;3.45;;;36.80;36.90;;;;;;5107817;28;20055;-81
2022/07/29 09:08:12;;;;;;;11.57;3.38;;;36.90;36.90;;;;;;5091389;28;20032;-80
2022/07/29 09:10:38;;;;;;;9.63;2.97;;;36.90;37.80;;;;;;5110033;28;20019;-81
2022/07/29 09:13:03;;;;;;;5.93;2.90;;;36.90;36.90;;;;;;5110213;28;20319;-79
2022/07/29 09:15:29;;;;;;;11.85;4.20;;;36.70;36.70;;;;;;5109787;28;20455;-78
2022/07/29 09:17:56;;;;;;;11.93;2.50;;;36.70;36.90;;;;;;5110152;28;20015;-80
2022/07/29 09:20:22;;;;;;;4.00;1.45;;;36.90;37.20;;;;;;5091513;28;20114;-79
2022/07/29 09:22:50;;;;;;;7.78;2.20;;;36.90;34.60;;;;;;5108754;28;20024;-80
2022/07/29 09:25:51;;;;;;;10.68;2.95;;;36.70;35.20;;;;;;5109648;28;20051;-79
2022/07/29 09:28:17;;;;;;;4.55;2.45;;;37.10;35.70;;;;;;4989975;28;20124;-80
2022/07/29 09:30:58;;;;;;;7.13;2.92;;;37.20;36.40;;;;;;5070346;28;20028;-80
2022/07/29 09:33:31;;;;;;;6.45;2.53;;;37.60;36.60;;;;;;5091319;28;20073;-79
2022/07/29 09:36:05;;;;;;;14.52;3.03;;;37.70;36.40;;;;;;5108626;28;20031;-80
2022/07/29 09:38:31;;;;;;;7.03;2.03;;;37.70;35.70;;;;;;5108840;28;20066;-79
2022/07/29 09:41:01;;;;;;;11.32;2.63;;;37.50;36.00;;;;;;5090915;28;20364;-80
2022/07/29 09:43:27;;;;;;;7.15;2.80;;;37.30;34.90;;;;;;5080992;28;20032;-79
2022/07/29 09:45:53;;;;;;;8.60;2.47;;;37.10;35.50;;;;;;5098207;28;20031;-80
2022/07/29 09:48:24;;;;;;;10.35;2.00;;;37.00;35.60;;;;;;5090163;28;20518;-79
2022/07/29 09:50:50;;;;;;;6.22;2.75;;;37.00;35.70;;;;;;5090060;28;20066;-80
2022/07/29 09:53:37;;;;;;;15.13;2.60;;;37.40;35.80;;;;;;5108805;28;20030;-79
2022/07/29 09:56:03;;;;;;;6.82;2.67;;;37.60;35.80;;;;;;5108969;28;20027;-79
2022/07/29 09:58:29;;;;;;;6.30;2.22;;;37.70;35.30;;;;;;5090440;28;20024;-78
2022/07/29 10:00:56;;;;;;;6.65;2.05;;;37.40;35.30;;;;;;5108311;28;20455;-79
2022/07/29 10:03:22;;;;;;;14.55;3.15;;;37.70;35.30;;;;;;5090611;28;20036;-82
2022/07/29 10:06:13;;;;;;;7.18;2.65;;;37.50;34.90;;;;;;5089562;28;20292;-81
2022/07/29 10:08:41;;;;;;;11.60;2.40;;;37.70;34.90;;;;;;5096203;28;20043;-81
2022/07/29 10:11:13;;;;;;;6.38;2.35;;;37.70;34.50;;;;;;5090318;28;20024;-79
2022/07/29 10:13:40;;;;;;;11.63;2.45;;;37.70;34.90;;;;;;5089731;28;20110;-81
2022/07/29 10:16:06;;;;;;;8.43;2.28;;;37.40;34.50;;;;;;5107045;28;20028;-80
2022/07/29 10:18:32;;;;;;;4.90;2.20;;;36.70;35.50;;;;;;5108887;28;20448;-80
2022/07/29 10:21:00;;;;;;;4.43;2.28;;;36.40;35.60;;;;;;5107890;28;20488;-81
2022/07/29 10:23:29;;;;;;;7.65;2.10;;;36.00;36.40;;;;;;5108683;28;20012;-81
2022/07/29 10:25:55;;;;;;;4.28;2.03;;;35.60;36.60;;;;;;5090144;28;20031;-80
2022/07/29 10:28:21;;;;;;;9.77;2.03;;;35.40;35.90;;;;;;5108455;28;20032;-79
2022/07/29 10:30:50;;;;;;;9.68;2.40;;;35.40;36.20;;;;;;5107675;28;20038;-80
2022/07/29 10:33:30;;;;;;;13.45;2.15;;;35.20;36.30;;;;;;5089711;28;20034;-81
2022/07/29 10:36:20;;;;;;;5.90;2.90;;;35.00;37.10;;;;;;5107751;28;20330;-81
2022/07/29 10:39:01;;;;;;;4.78;1.88;;;35.00;36.00;;;;;;5107783;28;20062;-81
2022/07/29 10:41:42;;;;;;;5.93;2.38;;;34.80;35.80;;;;;;5090063;28;20187;-81
2022/07/29 10:44:20;;;;;;;10.80;2.80;;;34.80;37.60;;;;;;5107801;28;20847;-81
2022/07/29 10:46:46;;;;;;;7.90;2.47;;;34.60;37.00;;;;;;5107640;28;20031;-82
2022/07/29 10:49:16;;;;;;;14.00;2.20;;;34.40;36.80;;;;;;5089550;28;20036;-82
2022/07/29 10:51:58;;;;;;;4.68;1.73;;;34.40;37.40;;;;;;5107460;28;20023;-81
2022/07/29 10:54:45;;;;;;;10.85;2.97;;;34.40;37.20;;;;;;5089834;28;20070;-81
2022/07/29 10:57:28;;;;;;;7.47;2.25;;;34.10;36.40;;;;;;5108236;28;20020;-80
2022/07/29 11:00:08;;;;;;;7.03;2.55;;;34.10;36.90;;;;;;5089673;28;20483;-79
2022/07/29 11:02:37;;;;;;;9.52;1.83;;;34.30;37.60;;;;;;5089312;28;20377;-81
2022/07/29 11:05:10;;;;;;;8.63;3.00;;;34.40;35.70;;;;;;5089129;28;20086;-81
2022/07/29 11:07:37;;;;;;;6.68;2.10;;;34.30;35.10;;;;;;5088769;28;20504;-81
2022/07/29 11:10:15;;;;;;;8.93;2.10;;;34.10;36.90;;;;;;5089505;28;20042;-81
2022/07/29 11:12:40;;;;;;;10.02;2.17;;;34.10;36.50;;;;;;5089105;28;20577;-81
2022/07/29 11:15:18;;;;;;;4.15;1.88;;;34.00;36.30;;;;;;5089126;28;20038;-82
2022/07/29 11:17:53;;;;;;;15.95;2.60;;;33.90;37.50;;;;;;5089588;28;20118;-81
2022/07/29 11:20:37;;;;;;;5.95;2.42;;;34.10;37.50;;;;;;5088622;28;20479;-82
2022/07/29 11:23:26;;;;;;;11.70;2.83;;;34.30;36.20;;;;;;5107452;28;20080;-81
2022/07/29 11:26:11;;;;;;;6.00;1.75;;;34.10;37.10;;;;;;5107356;28;20500;-81
2022/07/29 11:28:55;;;;;;;16.45;2.22;;;34.20;37.00;;;;;;5089029;28;20035;-81
2022/07/29 11:31:38;;;;;;;8.90;1.75;;;34.40;37.20;;;;;;5089137;28;20420;-81
2022/07/29 11:34:21;;;;;;;7.05;1.60;;;34.60;36.20;;;;;;5088878;28;20031;-80
2022/07/29 11:37:14;;;;;;;4.75;1.80;;;34.70;35.70;;;;;;5088510;28;20028;-82
2022/07/29 11:40:07;;;;;;;5.43;1.77;;;34.80;36.00;;;;;;5106625;28;20583;-82
2022/07/29 11:42:36;;;;;;;6.28;1.77;;;34.90;34.90;;;;;;5083899;28;20034;-82
2022/07/29 11:45:05;;;;;;;8.00;2.47;;;34.80;34.90;;;;;;5107046;28;20027;-81
2022/07/29 11:47:33;;;;;;;15.73;1.92;;;34.60;35.10;;;;;;5088317;28;20055;-81
2022/07/29 11:50:00;;;;;;;8.18;1.95;;;34.50;35.70;;;;;;5088477;28;20076;-80
2022/07/29 11:52:44;;;;;;;7.82;2.22;;;34.20;35.90;;;;;;5088725;28;20063;-81
2022/07/29 11:55:17;;;;;;;5.25;1.90;;;34.30;36.80;;;;;;5106897;28;20038;-81
2022/07/29 11:57:47;;;;;;;4.63;1.67;;;34.50;36.40;;;;;;5088405;28;20024;-80
2022/07/29 12:00:25;;;;;;;10.48;2.30;;;34.60;35.40;;;;;;5107361;28;20024;-79
2022/07/29 12:02:51;;;;;;;13.50;2.30;;;34.60;35.30;;;;;;5107201;28;20103;-79
2022/07/29 12:05:18;;;;;;;9.65;1.85;;;34.40;36.30;;;;;;5106595;28;20479;-80
2022/07/29 12:07:43;;;;;;;8.07;2.35;;;34.50;35.70;;;;;;5088105;28;20055;-80
2022/07/29 12:10:09;;;;;;;9.52;1.90;;;34.40;35.40;;;;;;5107063;28;20028;-81
2022/07/29 12:12:36;;;;;;;2.97;1.77;;;34.30;35.70;;;;;;5088724;28;20059;-80
2022/07/29 12:15:12;;;;;;;3.55;2.00;;;34.20;35.60;;;;;;5087998;28;20024;-80
2022/07/29 12:17:38;;;;;;;5.75;2.28;;;34.10;35.60;;;;;;5088655;28;20027;-80
2022/07/29 12:20:05;;;;;;;12.52;2.25;;;34.30;35.20;;;;;;5088267;28;20104;-80
2022/07/29 12:22:37;;;;;;;2.10;1.70;;;34.50;35.00;;;;;;5088281;28;20034;-80
2022/07/29 12:25:15;;;;;;;9.73;2.08;;;34.40;35.30;;;;;;5106279;28;20510;-80
2022/07/29 12:27:42;;;;;;;6.57;1.88;;;34.80;35.00;;;;;;5088281;28;20042;-78
2022/07/29 12:30:11;;;;;;;2.70;1.83;;;35.00;34.50;;;;;;5088466;28;20023;-80
2022/07/29 12:32:42;;;;;;;5.20;1.90;;;35.00;34.40;;;;;;5106680;28;20023;-79
2022/07/29 12:35:13;;;;;;;2.83;2.03;;;34.80;35.00;;;;;;5088176;28;20032;-80
2022/07/29 12:37:40;;;;;;;7.75;1.95;;;34.80;35.70;;;;;;5087992;28;20027;-80
2022/07/29 12:40:07;;;;;;;5.75;2.13;;;35.00;35.10;;;;;;5108340;28;20020;-80
2022/07/29 12:42:34;;;;;;;8.20;2.03;;;35.00;35.00;;;;;;5092131;28;20035;-80
2022/07/29 12:45:00;;;;;;;5.72;1.70;;;34.90;34.90;;;;;;5092391;28;20028;-81
2022/07/29 12:47:27;;;;;;;5.35;2.38;;;34.70;35.30;;;;;;5088013;28;20557;-81
2022/07/29 12:50:09;;;;;;;10.95;2.28;;;34.40;35.30;;;;;;5082401;28;20487;-81
2022/07/29 12:52:35;;;;;;;7.55;2.00;;;34.30;36.50;;;;;;5109828;28;20023;-81
2022/07/29 12:55:01;;;;;;;5.10;1.88;;;34.10;36.30;;;;;;5091859;28;20587;-81
2022/07/29 12:57:27;;;;;;;5.70;2.25;;;34.00;35.80;;;;;;5091840;28;20384;-81